Aeroporto :
LOGIN :

Iscrizione | Disclaimer

   EN    FR    IT 

 










Sommario :    VFR   VFR Marginale   IFR   IFR Intensivo   IFR Molto Intensivo
Visibilità : 
Base nubi : 
>= 8 km
>= 3000ft
5 / 8 km
1000 / 3000 ft
1500m / 5 km
500 / 1000 ft
800 / 1500m
200 / 500 ft
< 800m
< 200 ft
Simboli :   Temporali  Nebbia  Neve Forte  Precipitazioni Forti  Vento > 20 kt
SIGMETs :   Varie  Temporali  Ghiacco  Turbolenza  Onda orograficha  Ceneri Vulcaniche






- Altitudine del aeroporto : 1830 ft


EBLB - Butgenbach Elsenborn

ULTIMO METAR :
  • 290325Z AUTO 01010KT 9999 BKN012/// M01/M03 Q1023 GRN

METARs OBSOLETI :
  • 290255Z AUTO 01011KT 9999 OVC013/// M01/M03 Q1023 GRN
  • 290225Z AUTO 01011KT 9999 BKN014/// M01/M03 Q1023 GRN
  • 290155Z AUTO 01011KT 9999 OVC012/// M00/M03 Q1023 GRN
  • 290125Z AUTO 01011KT 9999 OVC010/// 00/M01 Q1023 GRN
  • 290112Z AUTO 36010KT 9999 -DZ OVC010/// 01/M01 Q1023 GRN
  • 290055Z AUTO 01009KT 9999 OVC015/// 01/M02 Q1023 WHT

Previsioni scadute.



MetMap, La meteo Aeronautica in un colpo d'occhio ! - Copyright ORBIFLY Dicembre 2007 - Disclaimer

ORBIFLY MET'MAP TEAM :

Programmazione e sviluppo : Alexandra Zaïnal
Concezione : Baudouin d'Aumeries
Aiuto per la programmazione : Marc-Olivier Méhu
Supporto tecnico e logistico : Manuel Goepfert
Aiuto per la traduzione : Arnaldo La Scala

Contatto : metmap@orbifly.com




FONTI E CREDITI :

   NOAA